Terminal Aerodrome Forecast
Issued by NWS

Home | Current Version | Previous Version | Text Only | Print | Product List | Glossary On
Versions: 1 2 3 4 5 6 7 8 9 10 11 12 13 14 15 16 17 18 19 20 21 22 23 24 25 26 27 28 29
000
FTUS45 KBYZ 290530
TAFLVM
TAF
KLVM 290530Z 2906/3006 09015KT P6SM -SN FEW020 BKN030
      TEMPO 2906/2909 08014G22KT 3SM -SN BLSN SCT005 OVC010
     FM290900 09014G23KT 5SM -SN BR SCT010 OVC020
     FM291600 08017G23KT P6SM SCT025 OVC050=

USA.gov is the U.S. government's official web portal to all federal, state and local government web resources and services.